EDDL/DUS METAR and TAF weather

Enter ICAO airport designator
Station Type Date Time Source
EDDL METAR 2018/12/13 15:50 UTC NOAA

EDDL 131550Z 05009KT 9999 FEW040 02/M03 Q1020 NOSIG


Station Type Date Time Source
EDDL Decoded METAR 2018/12/13 15:50 UTC NOAA

Duesseldorf, Germany (EDDL) 51-18N 006-46E 41M
Dec 13, 2018 - 10:50 AM EST / 2018.12.13 1550 UTC
Wind: from the NE (050 degrees) at 10 MPH (9 KT):0
Visibility: greater than 7 mile(s):0
Sky conditions: mostly clear
Temperature: 35 F (2 C)
Windchill: 26 F (-3 C):1
Dew Point: 26 F (-3 C)
Relative Humidity: 69%
Pressure (altimeter): 30.12 in. Hg (1020 hPa)
ob: EDDL 131550Z 05009KT 9999 FEW040 02/M03 Q1020 NOSIG
cycle: 16

Station Type Date Time Source
EDDL TAF 2018/12/13 12:28 UTC NOAA

TAF EDDL 131100Z 1312/1418 07007KT 9999 SCT045


Example: see airport list